Time;durP1;ratioP1;P1;durP2;ratioP2;P2;SDS_P1;SDS_P2;PMS_P1;PMS_P2;Temp;Humidity;BMP_temperature;BMP_pressure;BME280_temperature;BME280_humidity;BME280_pressure;Samples;Min_cycle;Max_cycle;Signal;HPM_P1;HPM_P2
2024/01/28 00:00:15;;;;;;;;;;;2.40;99.90;;;;;;5081214;28;20433;-80
2024/01/28 00:02:41;;;;;;;;;;;2.40;99.90;;;;;;5083419;28;20439;-80
2024/01/28 00:05:07;;;;;;;;;;;2.40;99.90;;;;;;5085236;28;19934;-81
2024/01/28 00:07:32;;;;;;;;;;;2.20;99.90;;;;;;5083624;28;19985;-81
2024/01/28 00:09:58;;;;;;;;;;;2.20;99.90;;;;;;5084726;28;20004;-81
2024/01/28 00:12:24;;;;;;;;;;;2.30;99.90;;;;;;5083189;28;20043;-81
2024/01/28 00:14:49;;;;;;;;;;;2.30;99.90;;;;;;5066655;28;19996;-80
2024/01/28 00:17:15;;;;;;;;;;;2.20;99.90;;;;;;5081155;28;20286;-80
2024/01/28 00:19:41;;;;;;;;;;;2.20;99.90;;;;;;5084549;28;19935;-81
2024/01/28 00:22:06;;;;;;;;;;;2.30;99.90;;;;;;5065064;28;20378;-80
2024/01/28 00:24:32;;;;;;;;;;;2.50;99.90;;;;;;5066362;28;19936;-79
2024/01/28 00:26:58;;;;;;;;;;;2.20;99.90;;;;;;5103256;28;19962;-80
2024/01/28 00:29:29;;;;;;;;;;;2.50;99.90;;;;;;5098808;28;19956;-80
2024/01/28 00:31:55;;;;;;;;;;;2.40;99.90;;;;;;5064947;28;19939;-80
2024/01/28 00:34:21;;;;;;;;;;;2.40;99.90;;;;;;5081104;28;19923;-81
2024/01/28 00:36:47;;;;;;;;;;;2.80;99.90;;;;;;5084825;28;19950;-80
2024/01/28 00:39:13;;;;;;;;;;;2.40;99.90;;;;;;5067385;28;20012;-81
2024/01/28 00:41:39;;;;;;;;;;;2.20;99.90;;;;;;5064648;28;20338;-80
2024/01/28 00:44:05;;;;;;;;;;;2.50;99.90;;;;;;5082953;28;19928;-80
2024/01/28 00:46:33;;;;;;;;;;;2.50;99.90;;;;;;5049908;28;19931;-81
2024/01/28 00:48:59;;;;;;;;;;;2.20;99.90;;;;;;5068402;28;19935;-80
2024/01/28 00:51:24;;;;;;;;;;;2.50;99.90;;;;;;5084702;28;19932;-80
2024/01/28 00:53:54;;;;;;;;;;;2.50;99.90;;;;;;5086122;28;19924;-81
2024/01/28 00:56:20;;;;;;;;;;;2.30;99.90;;;;;;5088792;28;19920;-80
2024/01/28 00:58:45;;;;;;;;;;;2.50;99.90;;;;;;5069588;27;20413;-81
2024/01/28 01:01:12;;;;;;;;;;;2.40;99.90;;;;;;5054055;28;19928;-81
2024/01/28 01:03:37;;;;;;;;;;;2.20;99.90;;;;;;5087992;28;19928;-80
2024/01/28 01:06:05;;;;;;;;;;;2.10;99.90;;;;;;5088435;28;19928;-80
2024/01/28 01:08:32;;;;;;;;;;;2.20;99.90;;;;;;5085807;28;20245;-80
2024/01/28 01:11:05;;;;;;;;;;;2.50;99.90;;;;;;5105889;28;19927;-79
2024/01/28 01:13:34;;;;;;;;;;;2.80;99.90;;;;;;5088047;28;19939;-80
2024/01/28 01:15:59;;;;;;;;;;;2.40;99.90;;;;;;5100103;27;19953;-80
2024/01/28 01:18:25;;;;;;;;;;;3.00;99.90;;;;;;5085616;27;20387;-81
2024/01/28 01:20:51;;;;;;;;;;;2.40;99.90;;;;;;5086067;28;19965;-80
2024/01/28 01:23:17;;;;;;;;;;;3.00;99.90;;;;;;5101786;28;19964;-79
2024/01/28 01:25:42;;;;;;;;;;;2.20;99.90;;;;;;5086311;27;19939;-80
2024/01/28 01:28:08;;;;;;;;;;;2.40;99.90;;;;;;5105904;27;19920;-79
2024/01/28 01:30:34;;;;;;;;;;;2.40;99.90;;;;;;5086749;28;19971;-80
2024/01/28 01:32:59;;;;;;;;;;;2.70;99.90;;;;;;5087742;27;20362;-80
2024/01/28 01:35:26;;;;;;;;;;;2.20;99.90;;;;;;5085549;27;20335;-80
2024/01/28 01:37:54;;;;;;;;;;;2.10;99.90;;;;;;5088548;28;19927;-81
2024/01/28 01:40:21;;;;;;;;;;;2.20;99.90;;;;;;5085745;28;20448;-80
2024/01/28 01:42:47;;;;;;;;;;;3.40;99.90;;;;;;5072088;28;20328;-80
2024/01/28 01:45:13;;;;;;;;;;;2.50;99.90;;;;;;5067459;28;19988;-80
2024/01/28 01:47:41;;;;;;;;;;;2.20;99.90;;;;;;5086110;28;19924;-80
2024/01/28 01:50:10;;;;;;;;;;;2.40;99.90;;;;;;5070032;28;19927;-80
2024/01/28 01:52:41;;;;;;;;;;;3.00;99.90;;;;;;5086754;27;19975;-80
2024/01/28 01:55:07;;;;;;;;;;;2.50;99.90;;;;;;5069631;28;20599;-80
2024/01/28 01:57:32;;;;;;;;;;;2.30;99.90;;;;;;5069336;28;19934;-80
2024/01/28 01:59:58;;;;;;;;;;;2.50;99.90;;;;;;5085934;27;19923;-81
2024/01/28 02:02:24;;;;;;;;;;;2.60;99.90;;;;;;5063524;28;20019;-80
2024/01/28 02:04:50;;;;;;;;;;;2.60;99.90;;;;;;5057598;27;19927;-81
2024/01/28 02:07:16;;;;;;;;;;;2.40;99.90;;;;;;5084982;28;19988;-80
2024/01/28 02:09:43;;;;;;;;;;;2.60;99.90;;;;;;5086692;28;20341;-80
2024/01/28 02:12:09;;;;;;;;;;;4.00;99.90;;;;;;5103154;27;19965;-80
2024/01/28 02:14:34;;;;;;;;;;;2.30;99.90;;;;;;5101451;27;19978;-80
2024/01/28 02:17:01;;;;;;;;;;;2.60;99.90;;;;;;5085788;28;19924;-80
2024/01/28 02:19:27;;;;;;;;;;;2.60;99.90;;;;;;5100092;27;19928;-80
2024/01/28 02:21:53;;;;;;;;;;;2.30;99.90;;;;;;5096938;27;20451;-80
2024/01/28 02:24:19;;;;;;;;;;;3.40;99.90;;;;;;5067807;27;19971;-80
2024/01/28 02:26:44;;;;;;;;;;;2.50;99.90;;;;;;5085804;28;19979;-81
2024/01/28 02:29:10;;;;;;;;;;;2.60;99.90;;;;;;5086828;28;19996;-80
2024/01/28 02:31:37;;;;;;;;;;;2.60;99.90;;;;;;5085371;28;20104;-79
2024/01/28 02:34:03;;;;;;;;;;;2.60;99.90;;;;;;5088792;28;19928;-80
2024/01/28 02:36:29;;;;;;;;;;;2.40;99.90;;;;;;5088843;28;20449;-81
2024/01/28 02:38:54;;;;;;;;;;;2.80;99.90;;;;;;5090895;28;19928;-81
2024/01/28 02:41:21;;;;;;;;;;;2.50;99.90;;;;;;5086437;28;19928;-80
2024/01/28 02:43:46;;;;;;;;;;;2.60;99.90;;;;;;5070767;28;19928;-81
2024/01/28 02:46:14;;;;;;;;;;;2.60;99.90;;;;;;5089052;28;20371;-80
2024/01/28 02:48:40;;;;;;;;;;;2.40;99.90;;;;;;5092116;27;19927;-81
2024/01/28 02:51:06;;;;;;;;;;;2.50;99.90;;;;;;5076873;28;19990;-80
2024/01/28 02:53:32;;;;;;;;;;;2.40;99.90;;;;;;5079363;28;19935;-81
2024/01/28 02:56:00;;;;;;;;;;;2.50;99.90;;;;;;5073914;28;19920;-80
2024/01/28 02:58:25;;;;;;;;;;;2.20;99.90;;;;;;5106521;28;19980;-80
2024/01/28 03:00:52;;;;;;;;;;;3.70;99.90;;;;;;5075650;28;20942;-81
2024/01/28 03:03:18;;;;;;;;;;;2.40;99.90;;;;;;5108284;28;19928;-81
2024/01/28 03:05:43;;;;;;;;;;;2.10;99.90;;;;;;5092244;28;19928;-81
2024/01/28 03:08:09;;;;;;;;;;;2.20;99.90;;;;;;5090156;28;19986;-80
2024/01/28 03:10:35;;;;;;;;;;;2.40;99.90;;;;;;5108418;28;19972;-81
2024/01/28 03:13:00;;;;;;;;;;;1.90;99.90;;;;;;5086982;27;19924;-81
2024/01/28 03:15:26;;;;;;;;;;;1.70;99.90;;;;;;5089848;28;19928;-80
2024/01/28 03:17:51;;;;;;;;;;;1.70;99.90;;;;;;5069551;27;19930;-80
2024/01/28 03:20:18;;;;;;;;;;;2.00;99.90;;;;;;5088051;28;19985;-80
2024/01/28 03:22:43;;;;;;;;;;;1.60;99.90;;;;;;5069324;28;19928;-80
2024/01/28 03:25:09;;;;;;;;;;;1.60;99.90;;;;;;5088785;28;19934;-78
2024/01/28 03:27:35;;;;;;;;;;;1.50;99.90;;;;;;5090630;28;19934;-81
2024/01/28 03:30:03;;;;;;;;;;;3.20;99.90;;;;;;5089569;28;20282;-80
2024/01/28 03:32:28;;;;;;;;;;;2.00;99.90;;;;;;5087913;28;19972;-81
2024/01/28 03:34:54;;;;;;;;;;;2.00;99.90;;;;;;5071817;28;20011;-80
2024/01/28 03:37:19;;;;;;;;;;;1.60;99.90;;;;;;5089813;28;19928;-81
2024/01/28 03:39:51;;;;;;;;;;;1.70;99.90;;;;;;5078396;28;20076;-79
2024/01/28 03:42:16;;;;;;;;;;;2.70;99.90;;;;;;5088482;28;20521;-81
2024/01/28 03:44:43;;;;;;;;;;;1.60;99.90;;;;;;5089026;28;20400;-81
2024/01/28 03:47:13;;;;;;;;;;;1.50;99.90;;;;;;5107101;27;19924;-80
2024/01/28 03:49:38;;;;;;;;;;;1.20;99.90;;;;;;5089928;28;20018;-81
2024/01/28 03:52:04;;;;;;;;;;;1.40;99.90;;;;;;5110423;28;20018;-81
2024/01/28 03:54:36;;;;;;;;;;;1.50;99.90;;;;;;5091077;28;19938;-81
2024/01/28 03:57:02;;;;;;;;;;;1.10;99.90;;;;;;5071414;28;19920;-80
2024/01/28 03:59:27;;;;;;;;;;;1.40;99.90;;;;;;5089810;28;19969;-81
2024/01/28 04:01:53;;;;;;;;;;;1.10;99.90;;;;;;5090760;28;19934;-81
2024/01/28 04:04:19;;;;;;;;;;;2.50;99.90;;;;;;5086064;28;20022;-81
2024/01/28 04:06:44;;;;;;;;;;;1.10;99.90;;;;;;5070130;28;19931;-80
2024/01/28 04:09:10;;;;;;;;;;;1.10;99.90;;;;;;5085641;28;20005;-79
2024/01/28 04:11:36;;;;;;;;;;;1.30;99.90;;;;;;5069067;28;19928;-80
2024/01/28 04:14:02;;;;;;;;;;;1.00;99.90;;;;;;5085387;28;19931;-81
2024/01/28 04:16:27;;;;;;;;;;;1.10;99.90;;;;;;5084609;28;20399;-81
2024/01/28 04:18:54;;;;;;;;;;;2.20;99.90;;;;;;5081786;28;20615;-81
2024/01/28 04:21:20;;;;;;;;;;;0.90;99.90;;;;;;5085616;28;20354;-80
2024/01/28 04:23:46;;;;;;;;;;;1.20;99.90;;;;;;5080388;28;19935;-80
2024/01/28 04:26:12;;;;;;;;;;;0.80;99.90;;;;;;5088835;28;19923;-82
2024/01/28 04:28:40;;;;;;;;;;;1.10;99.90;;;;;;5088567;28;19951;-80
2024/01/28 04:31:07;;;;;;;;;;;0.80;99.90;;;;;;5105917;27;19930;-80
2024/01/28 04:33:32;;;;;;;;;;;0.80;99.90;;;;;;5068742;28;19939;-81
2024/01/28 04:35:58;;;;;;;;;;;2.50;99.90;;;;;;5105683;27;19931;-80
2024/01/28 04:38:24;;;;;;;;;;;0.70;99.90;;;;;;5088788;27;20596;-80
2024/01/28 04:40:52;;;;;;;;;;;0.80;99.90;;;;;;5087473;27;19946;-81
2024/01/28 04:43:18;;;;;;;;;;;0.70;99.90;;;;;;5103407;27;19927;-80
2024/01/28 04:45:44;;;;;;;;;;;0.70;99.90;;;;;;5071748;27;19928;-80
2024/01/28 04:48:09;;;;;;;;;;;1.00;99.90;;;;;;5087820;28;19992;-80
2024/01/28 04:50:35;;;;;;;;;;;1.00;99.90;;;;;;5102600;27;20422;-80
2024/01/28 04:53:02;;;;;;;;;;;1.70;99.90;;;;;;5055449;28;19924;-81
2024/01/28 04:55:28;;;;;;;;;;;0.90;99.90;;;;;;5104223;27;20166;-80
2024/01/28 04:57:53;;;;;;;;;;;0.90;99.90;;;;;;5104662;27;20049;-80
2024/01/28 05:00:19;;;;;;;;;;;0.70;99.90;;;;;;5107327;27;19924;-80
2024/01/28 05:02:45;;;;;;;;;;;0.70;99.90;;;;;;5088062;28;20461;-80
2024/01/28 05:05:10;;;;;;;;;;;0.90;99.90;;;;;;5085417;28;19928;-79
2024/01/28 05:07:36;;;;;;;;;;;0.60;99.90;;;;;;5087547;28;20405;-80
2024/01/28 05:10:02;;;;;;;;;;;2.00;99.90;;;;;;5087644;27;20221;-79
2024/01/28 05:12:27;;;;;;;;;;;1.80;99.90;;;;;;5069549;28;20776;-80
2024/01/28 05:14:53;;;;;;;;;;;0.90;99.90;;;;;;5086609;28;20037;-80
2024/01/28 05:17:19;;;;;;;;;;;1.40;99.90;;;;;;5086430;28;19928;-80
2024/01/28 05:19:46;;;;;;;;;;;2.10;99.90;;;;;;5087029;28;19928;-80
2024/01/28 05:22:11;;;;;;;;;;;0.60;99.90;;;;;;5105416;27;19928;-80
2024/01/28 05:24:37;;;;;;;;;;;0.70;99.90;;;;;;5087905;28;20037;-81
2024/01/28 05:27:04;;;;;;;;;;;0.50;99.90;;;;;;5083786;28;19932;-80
2024/01/28 05:29:30;;;;;;;;;;;0.60;99.90;;;;;;5067950;28;19927;-81
2024/01/28 05:31:55;;;;;;;;;;;0.80;99.90;;;;;;5088702;28;19939;-79
2024/01/28 05:34:21;;;;;;;;;;;0.50;99.90;;;;;;5069889;28;20370;-81
2024/01/28 05:36:48;;;;;;;;;;;1.20;99.90;;;;;;5069717;28;19943;-80
2024/01/28 05:39:19;;;;;;;;;;;0.70;99.90;;;;;;5087578;28;20408;-80
2024/01/28 05:41:45;;;;;;;;;;;1.10;99.90;;;;;;5087009;28;19967;-80
2024/01/28 05:44:11;;;;;;;;;;;0.50;99.90;;;;;;5069822;28;19932;-80
2024/01/28 05:46:37;;;;;;;;;;;0.60;99.90;;;;;;5086959;28;20047;-80
2024/01/28 05:49:02;;;;;;;;;;;0.40;99.90;;;;;;5086166;28;20009;-80
2024/01/28 05:51:28;;;;;;;;;;;1.70;99.90;;;;;;5068311;27;19924;-80
2024/01/28 05:53:54;;;;;;;;;;;0.50;99.90;;;;;;5087388;28;19920;-80
2024/01/28 05:56:20;;;;;;;;;;;0.60;99.90;;;;;;5084405;28;19935;-80
2024/01/28 05:58:45;;;;;;;;;;;1.10;99.90;;;;;;5085311;28;19938;-80
2024/01/28 06:01:12;;;;;;;;;;;1.30;99.90;;;;;;5084856;28;19963;-81
2024/01/28 06:03:38;;;;;;;;;;;0.40;99.90;;;;;;5067269;28;20594;-79
2024/01/28 06:06:04;;;;;;;;;;;0.60;99.90;;;;;;5067717;27;19920;-80
2024/01/28 06:08:29;;;;;;;;;;;0.50;99.90;;;;;;5086659;28;19927;-80
2024/01/28 06:10:56;;;;;;;;;;;0.50;99.90;;;;;;5084943;28;19962;-80
2024/01/28 06:13:27;;;;;;;;;;;0.50;99.90;;;;;;5083740;28;19927;-79
2024/01/28 06:15:53;;;;;;;;;;;1.80;99.90;;;;;;5085376;28;20436;-80
2024/01/28 06:18:19;;;;;;;;;;;0.50;99.90;;;;;;5069846;28;19924;-81
2024/01/28 06:20:45;;;;;;;;;;;0.40;99.90;;;;;;5087469;28;19930;-81
2024/01/28 06:23:11;;;;;;;;;;;0.20;99.90;;;;;;5066052;27;20009;-79
2024/01/28 06:25:36;;;;;;;;;;;0.80;99.90;;;;;;5100851;27;19928;-80
2024/01/28 06:28:03;;;;;;;;;;;1.00;99.90;;;;;;5102436;27;19927;-80
2024/01/28 06:30:29;;;;;;;;;;;0.40;99.90;;;;;;5085234;28;20031;-80
2024/01/28 06:32:55;;;;;;;;;;;0.50;99.90;;;;;;5067007;28;20294;-80
2024/01/28 06:35:21;;;;;;;;;;;1.00;99.90;;;;;;5099567;27;19924;-81
2024/01/28 06:37:47;;;;;;;;;;;1.60;99.90;;;;;;5103882;27;19924;-80
2024/01/28 06:40:12;;;;;;;;;;;0.20;99.90;;;;;;5066748;28;19935;-80
2024/01/28 06:42:38;;;;;;;;;;;0.20;99.90;;;;;;5085270;28;20087;-80
2024/01/28 06:45:04;;;;;;;;;;;0.20;99.90;;;;;;5101287;28;20027;-80
2024/01/28 06:47:29;;;;;;;;;;;0.20;99.90;;;;;;5081578;28;20327;-80
2024/01/28 06:49:55;;;;;;;;;;;1.10;99.90;;;;;;5083336;28;19935;-79
2024/01/28 06:52:20;;;;;;;;;;;0.10;99.90;;;;;;5084026;28;19919;-79
2024/01/28 06:54:46;;;;;;;;;;;0.10;99.90;;;;;;5068000;27;19933;-78
2024/01/28 06:57:12;;;;;;;;;;;-0.10;99.90;;;;;;5084855;28;19986;-79
2024/01/28 06:59:39;;;;;;;;;;;-0.30;99.90;;;;;;5081583;28;20370;-80
2024/01/28 07:02:07;;;;;;;;;;;-0.30;99.90;;;;;;5068892;28;19927;-80
2024/01/28 07:04:32;;;;;;;;;;;0.00;99.90;;;;;;5085297;28;20508;-80
2024/01/28 07:06:59;;;;;;;;;;;-0.30;99.90;;;;;;5067482;28;19928;-76
2024/01/28 07:09:24;;;;;;;;;;;0.00;99.90;;;;;;5081633;28;19923;-79
2024/01/28 07:11:50;;;;;;;;;;;0.00;99.90;;;;;;5084912;28;20382;-79
2024/01/28 07:14:17;;;;;;;;;;;-0.30;99.90;;;;;;5082151;27;19931;-86
2024/01/28 07:16:42;;;;;;;;;;;-0.20;99.90;;;;;;5086968;28;19924;-84
2024/01/28 07:19:08;;;;;;;;;;;0.00;99.90;;;;;;5053644;28;19934;-83
2024/01/28 07:21:34;;;;;;;;;;;0.00;99.90;;;;;;5085418;28;19985;-83
2024/01/28 07:23:59;;;;;;;;;;;0.00;99.90;;;;;;5086256;28;20001;-81
2024/01/28 07:26:25;;;;;;;;;;;0.90;99.90;;;;;;5071549;28;20314;-87
2024/01/28 07:28:51;;;;;;;;;;;1.50;99.90;;;;;;5072621;28;19989;-83
2024/01/28 07:31:17;;;;;;;;;;;0.10;99.90;;;;;;5102873;27;19923;-78
2024/01/28 07:33:43;;;;;;;;;;;-0.10;99.90;;;;;;5086267;28;19923;-78
2024/01/28 07:36:09;;;;;;;;;;;0.90;99.90;;;;;;5086257;28;19952;-83
2024/01/28 07:38:35;;;;;;;;;;;0.10;99.90;;;;;;5083670;28;19927;-79
2024/01/28 07:41:01;;;;;;;;;;;0.10;99.90;;;;;;5085378;27;20035;-82
2024/01/28 07:43:26;;;;;;;;;;;-0.30;99.90;;;;;;5069455;28;19924;-83
2024/01/28 07:45:55;;;;;;;;;;;0.20;99.90;;;;;;5073197;28;19928;-83
2024/01/28 07:48:20;;;;;;;;;;;-0.10;99.90;;;;;;5101339;28;19930;-82
2024/01/28 07:50:46;;;;;;;;;;;-0.20;99.90;;;;;;5068062;28;19928;-81
2024/01/28 07:53:17;;;;;;;;;;;-0.10;99.90;;;;;;5053315;28;19927;-86
2024/01/28 07:55:43;;;;;;;;;;;0.50;99.90;;;;;;5086188;28;19931;-85
2024/01/28 07:58:09;;;;;;;;;;;0.00;99.90;;;;;;5088459;28;20192;-78
2024/01/28 08:00:35;;;;;;;;;;;0.10;99.90;;;;;;5064609;28;19928;-79
2024/01/28 08:03:01;;;;;;;;;;;0.10;99.90;;;;;;5105301;28;19935;-84
2024/01/28 08:05:26;;;;;;;;;;;1.90;99.90;;;;;;5088613;28;19923;-85
2024/01/28 08:07:52;;;;;;;;;;;1.50;99.90;;;;;;5070144;28;19927;-86
2024/01/28 08:10:18;;;;;;;;;;;1.80;99.90;;;;;;5072638;28;19924;-86
2024/01/28 08:12:43;;;;;;;;;;;0.00;99.90;;;;;;5054122;28;19927;-86
2024/01/28 08:15:09;;;;;;;;;;;0.00;99.90;;;;;;5069685;28;19931;-88
2024/01/28 08:17:35;;;;;;;;;;;0.00;99.90;;;;;;5054497;28;19942;-87
2024/01/28 08:20:01;;;;;;;;;;;0.10;99.90;;;;;;5072699;28;19928;-87
2024/01/28 08:22:26;;;;;;;;;;;0.30;99.90;;;;;;5068363;28;20271;-88
2024/01/28 08:24:52;;;;;;;;;;;2.30;99.90;;;;;;5074252;28;19946;-85
2024/01/28 08:27:18;;;;;;;;;;;0.40;99.90;;;;;;5089113;28;20414;-86
2024/01/28 08:29:49;;;;;;;;;;;1.60;99.90;;;;;;5072639;28;19963;-87
2024/01/28 08:32:15;;;;;;;;;;;0.50;99.90;;;;;;5086063;28;19982;-87
2024/01/28 08:34:41;;;;;;;;;;;0.50;99.90;;;;;;5070752;28;19936;-86
2024/01/28 08:37:06;;;;;;;;;;;-0.70;99.90;;;;;;5068529;28;19981;-86
2024/01/28 08:39:32;;;;;;;;;;;0.50;99.90;;;;;;5066908;28;19928;-85
2024/01/28 08:41:59;;;;;;;;;;;0.60;99.90;;;;;;5067666;28;20321;-86
2024/01/28 08:44:25;;;;;;;;;;;0.60;99.90;;;;;;5049724;28;19931;-78
2024/01/28 08:46:51;;;;;;;;;;;0.40;99.90;;;;;;5080967;28;19993;-76
2024/01/28 08:49:17;;;;;;;;;;;0.40;99.90;;;;;;5031068;28;19926;-77
2024/01/28 08:51:42;;;;;;;;;;;0.40;99.90;;;;;;5067741;28;19927;-76
2024/01/28 08:54:08;;;;;;;;;;;1.20;99.90;;;;;;5061574;28;19934;-76
2024/01/28 08:56:33;;;;;;;;;;;0.80;99.90;;;;;;5080096;28;20024;-77
2024/01/28 08:58:59;;;;;;;;;;;0.70;99.90;;;;;;5082101;28;19928;-76
2024/01/28 09:01:25;;;;;;;;;;;0.90;99.90;;;;;;5083400;28;19933;-77
2024/01/28 09:03:51;;;;;;;;;;;1.50;99.90;;;;;;5066221;28;20147;-79
2024/01/28 09:06:16;;;;;;;;;;;2.30;99.90;;;;;;5078947;28;20387;-80
2024/01/28 09:08:43;;;;;;;;;;;3.20;99.90;;;;;;5081959;28;19980;-79
2024/01/28 09:11:09;;;;;;;;;;;3.90;99.90;;;;;;5083503;28;20291;-79
2024/01/28 09:13:36;;;;;;;;;;;4.70;99.90;;;;;;5071265;28;20009;-76
2024/01/28 09:16:01;;;;;;;;;;;4.50;99.90;;;;;;5101532;27;19928;-78
2024/01/28 09:18:27;;;;;;;;;;;4.40;99.90;;;;;;5068128;27;19924;-77
2024/01/28 09:20:53;;;;;;;;;;;4.40;99.90;;;;;;5086728;28;20069;-77
2024/01/28 09:23:19;;;;;;;;;;;4.80;99.90;;;;;;5083400;28;19928;-83
2024/01/28 09:25:44;;;;;;;;;;;4.20;99.70;;;;;;5068050;28;19958;-78
2024/01/28 09:28:10;;;;;;;;;;;5.00;98.80;;;;;;5103307;27;20750;-76
2024/01/28 09:30:36;;;;;;;;;;;3.50;99.10;;;;;;5087158;27;20027;-78
2024/01/28 09:33:03;;;;;;;;;;;3.50;99.90;;;;;;5085035;28;20418;-80
2024/01/28 09:35:29;;;;;;;;;;;3.80;99.90;;;;;;5067603;28;19947;-81
2024/01/28 09:37:55;;;;;;;;;;;3.60;99.70;;;;;;5099563;27;19927;-77
2024/01/28 09:40:20;;;;;;;;;;;3.60;99.90;;;;;;5087745;28;19930;-79
2024/01/28 09:43:05;;;;;;;;;;;3.70;99.90;;;;;;5106759;27;19939;-82
2024/01/28 09:45:30;;;;;;;;;;;4.40;99.90;;;;;;5088014;28;20351;-78
2024/01/28 09:47:57;;;;;;;;;;;4.50;99.90;;;;;;5085224;28;20030;-78
2024/01/28 09:50:22;;;;;;;;;;;4.50;98.80;;;;;;5091054;27;19984;-77
2024/01/28 09:52:48;;;;;;;;;;;5.30;99.00;;;;;;5085916;28;20390;-79
2024/01/28 09:55:14;;;;;;;;;;;4.50;98.60;;;;;;5087227;27;19924;-76
2024/01/28 09:57:40;;;;;;;;;;;4.20;98.80;;;;;;5104894;28;20699;-78
2024/01/28 10:00:07;;;;;;;;;;;4.50;98.70;;;;;;5086954;28;20026;-79
2024/01/28 10:02:35;;;;;;;;;;;4.20;98.40;;;;;;5086292;28;19970;-77
2024/01/28 10:05:01;;;;;;;;;;;4.00;98.90;;;;;;5101693;28;20222;-84
2024/01/28 10:07:27;;;;;;;;;;;4.30;99.60;;;;;;5087512;28;19927;-76
2024/01/28 10:09:56;;;;;;;;;;;4.80;99.90;;;;;;5104735;27;19974;-76
2024/01/28 10:12:21;;;;;;;;;;;5.40;99.90;;;;;;5086009;28;19963;-85
2024/01/28 10:14:50;;;;;;;;;;;6.00;98.50;;;;;;5088400;28;19928;-76
2024/01/28 10:17:16;;;;;;;;;;;6.10;96.80;;;;;;5086558;28;20022;-77
2024/01/28 10:19:41;;;;;;;;;;;6.80;95.70;;;;;;5087372;28;20470;-82
2024/01/28 10:22:07;;;;;;;;;;;6.80;92.40;;;;;;5088066;28;19928;-77
2024/01/28 10:24:34;;;;;;;;;;;7.30;91.30;;;;;;5085456;28;19967;-78
2024/01/28 10:26:59;;;;;;;;;;;7.00;90.10;;;;;;5104658;27;19924;-84
2024/01/28 10:29:27;;;;;;;;;;;7.20;90.40;;;;;;5087940;28;20487;-78
2024/01/28 10:31:53;;;;;;;;;;;7.40;87.60;;;;;;5081970;28;19966;-75
2024/01/28 10:34:18;;;;;;;;;;;7.10;86.20;;;;;;5085579;27;19963;-78
2024/01/28 10:36:47;;;;;;;;;;;6.90;84.10;;;;;;5087905;28;20416;-77
2024/01/28 10:39:14;;;;;;;;;;;7.20;88.90;;;;;;5092183;27;19931;-77
2024/01/28 10:41:41;;;;;;;;;;;7.40;82.10;;;;;;5072122;28;19931;-78
2024/01/28 10:44:07;;;;;;;;;;;7.70;82.60;;;;;;5089657;27;19984;-77
2024/01/28 10:46:37;;;;;;;;;;;8.30;77.80;;;;;;5110395;28;19924;-79
2024/01/28 10:49:04;;;;;;;;;;;8.10;73.00;;;;;;5110780;28;19933;-79
2024/01/28 10:51:32;;;;;;;;;;;8.30;78.30;;;;;;5108929;27;20011;-78
2024/01/28 10:53:58;;;;;;;;;;;9.00;80.90;;;;;;5090109;28;19946;-78
2024/01/28 10:56:25;;;;;;;;;;;9.60;61.80;;;;;;5070963;28;20302;-78
2024/01/28 10:58:50;;;;;;;;;;;10.20;59.60;;;;;;5068972;28;19928;-79
2024/01/28 11:01:17;;;;;;;;;;;10.90;47.50;;;;;;5103052;28;19931;-77
2024/01/28 11:03:42;;;;;;;;;;;11.20;48.30;;;;;;5102509;28;19924;-78
2024/01/28 11:06:08;;;;;;;;;;;11.30;36.30;;;;;;5069283;28;19935;-79
2024/01/28 11:08:34;;;;;;;;;;;11.10;47.60;;;;;;5086968;28;19985;-81
2024/01/28 11:11:03;;;;;;;;;;;10.90;60.20;;;;;;5103784;28;20007;-80
2024/01/28 11:13:31;;;;;;;;;;;10.70;34.80;;;;;;5067467;28;19927;-78
2024/01/28 11:15:57;;;;;;;;;;;10.60;35.90;;;;;;5084500;28;20394;-80
2024/01/28 11:18:29;;;;;;;;;;;9.90;31.60;;;;;;5065884;28;20491;-77
2024/01/28 11:20:55;;;;;;;;;;;9.30;50.10;;;;;;5083194;28;20298;-77
2024/01/28 11:23:20;;;;;;;;;;;7.10;57.60;;;;;;5082972;28;19932;-81
2024/01/28 11:25:46;;;;;;;;;;;8.10;74.50;;;;;;5098425;28;20394;-79
2024/01/28 11:28:13;;;;;;;;;;;7.60;79.60;;;;;;5084914;27;20018;-78
2024/01/28 11:30:39;;;;;;;;;;;7.30;82.30;;;;;;5100611;27;20413;-76
2024/01/28 11:33:10;;;;;;;;;;;7.10;84.90;;;;;;5102737;28;20594;-78
2024/01/28 11:35:36;;;;;;;;;;;7.00;87.40;;;;;;5096575;28;19975;-77
2024/01/28 11:38:05;;;;;;;;;;;6.80;90.10;;;;;;5101290;27;19967;-77
2024/01/28 11:40:35;;;;;;;;;;;6.60;88.00;;;;;;5081887;28;20006;-76
2024/01/28 11:43:03;;;;;;;;;;;6.60;90.60;;;;;;5081849;28;19927;-75
2024/01/28 11:45:29;;;;;;;;;;;6.40;91.20;;;;;;5084549;28;19969;-75
2024/01/28 11:47:55;;;;;;;;;;;6.30;92.70;;;;;;5081767;28;19932;-79
2024/01/28 11:50:21;;;;;;;;;;;6.20;92.70;;;;;;5081399;28;20297;-74
2024/01/28 11:52:46;;;;;;;;;;;6.20;93.00;;;;;;5082939;28;20014;-76
2024/01/28 11:55:13;;;;;;;;;;;6.10;93.20;;;;;;5081853;28;19928;-78
2024/01/28 11:57:40;;;;;;;;;;;6.10;93.40;;;;;;5083993;28;19928;-77
2024/01/28 12:00:08;;;;;;;;;;;6.20;93.20;;;;;;5065057;28;19996;-76
2024/01/28 12:02:35;;;;;;;;;;;6.10;93.80;;;;;;5082899;28;20002;-75
2024/01/28 12:05:03;;;;;;;;;;;6.10;93.70;;;;;;5081617;28;20211;-76
2024/01/28 12:07:33;;;;;;;;;;;6.00;94.20;;;;;;5083100;28;19928;-76
2024/01/28 12:09:59;;;;;;;;;;;5.90;95.00;;;;;;5064712;28;19932;-77
2024/01/28 12:12:25;;;;;;;;;;;5.80;95.70;;;;;;5097703;28;19932;-76
2024/01/28 12:14:51;;;;;;;;;;;6.00;96.00;;;;;;5068492;28;19978;-76
2024/01/28 12:17:16;;;;;;;;;;;5.70;96.70;;;;;;5084323;28;19924;-75
2024/01/28 12:19:42;;;;;;;;;;;5.80;96.50;;;;;;5082288;28;19927;-76
2024/01/28 12:22:11;;;;;;;;;;;6.00;96.50;;;;;;5064645;28;19932;-76
2024/01/28 12:24:43;;;;;;;;;;;6.00;96.10;;;;;;5097335;28;20434;-76
2024/01/28 12:27:09;;;;;;;;;;;5.80;96.50;;;;;;5082190;28;20270;-73
2024/01/28 12:29:34;;;;;;;;;;;5.70;96.90;;;;;;5101711;28;19924;-82
2024/01/28 12:32:00;;;;;;;;;;;5.60;96.90;;;;;;5066452;28;20530;-75
2024/01/28 12:34:29;;;;;;;;;;;6.10;96.70;;;;;;5102079;28;20020;-78
2024/01/28 12:36:54;;;;;;;;;;;6.00;96.20;;;;;;5087126;28;20689;-79
2024/01/28 12:39:20;;;;;;;;;;;5.80;96.00;;;;;;5085687;28;20417;-78
2024/01/28 12:41:46;;;;;;;;;;;5.70;95.80;;;;;;5053898;28;19928;-78
2024/01/28 12:44:11;;;;;;;;;;;5.90;95.80;;;;;;5069259;28;20006;-78
2024/01/28 12:46:37;;;;;;;;;;;5.70;95.60;;;;;;5087266;28;20081;-81
2024/01/28 12:49:03;;;;;;;;;;;6.00;95.80;;;;;;5109081;27;19927;-78
2024/01/28 12:51:29;;;;;;;;;;;6.10;96.00;;;;;;5090564;28;19946;-79
2024/01/28 12:53:54;;;;;;;;;;;6.20;94.90;;;;;;5090681;28;19970;-79
2024/01/28 12:56:20;;;;;;;;;;;6.00;94.70;;;;;;5091562;28;20283;-83
2024/01/28 12:58:46;;;;;;;;;;;6.30;95.90;;;;;;5091735;27;20446;-79
2024/01/28 13:01:11;;;;;;;;;;;6.10;94.90;;;;;;5089764;28;19943;-79
2024/01/28 13:03:38;;;;;;;;;;;6.10;95.40;;;;;;5091892;27;19927;-79
2024/01/28 13:06:05;;;;;;;;;;;6.00;94.70;;;;;;5110968;28;19928;-79
2024/01/28 13:08:30;;;;;;;;;;;6.20;95.00;;;;;;5092359;28;19923;-78
2024/01/28 13:11:00;;;;;;;;;;;6.10;94.30;;;;;;5093082;28;19943;-78
2024/01/28 13:13:25;;;;;;;;;;;6.10;94.00;;;;;;5091697;28;20042;-78
2024/01/28 13:15:51;;;;;;;;;;;6.40;95.20;;;;;;5076027;28;19997;-78
2024/01/28 13:18:17;;;;;;;;;;;6.20;95.30;;;;;;5089173;28;19938;-76
2024/01/28 13:20:42;;;;;;;;;;;6.50;95.40;;;;;;5106423;28;19989;-78
2024/01/28 13:23:08;;;;;;;;;;;6.30;95.60;;;;;;5086725;28;20342;-79
2024/01/28 13:25:34;;;;;;;;;;;6.20;95.60;;;;;;5072662;28;19930;-74
2024/01/28 13:28:00;;;;;;;;;;;6.50;94.60;;;;;;5103387;27;19932;-82
2024/01/28 13:30:25;;;;;;;;;;;6.60;94.70;;;;;;5068475;28;19924;-78
2024/01/28 13:32:51;;;;;;;;;;;6.50;94.50;;;;;;5105437;27;20000;-76
2024/01/28 13:35:16;;;;;;;;;;;6.60;94.00;;;;;;5083024;28;19969;-77
2024/01/28 13:37:43;;;;;;;;;;;6.50;93.70;;;;;;5087897;28;19931;-77
2024/01/28 13:40:09;;;;;;;;;;;6.40;93.10;;;;;;5069154;27;20410;-78
2024/01/28 13:42:37;;;;;;;;;;;6.70;93.40;;;;;;5083012;28;20018;-77
2024/01/28 13:45:05;;;;;;;;;;;6.50;92.30;;;;;;5102766;28;20391;-78
2024/01/28 13:47:32;;;;;;;;;;;6.40;92.70;;;;;;5086603;27;19928;-76
2024/01/28 13:49:59;;;;;;;;;;;6.60;91.90;;;;;;5086732;28;19979;-80
2024/01/28 13:52:25;;;;;;;;;;;6.60;92.60;;;;;;5086362;28;19931;-77
2024/01/28 13:54:50;;;;;;;;;;;6.70;92.00;;;;;;5086614;27;19928;-77
2024/01/28 13:57:17;;;;;;;;;;;6.60;92.60;;;;;;5069806;28;19947;-76
2024/01/28 13:59:43;;;;;;;;;;;6.60;92.20;;;;;;5086222;28;19928;-77
2024/01/28 14:02:09;;;;;;;;;;;6.70;92.80;;;;;;5070768;28;19987;-77
2024/01/28 14:04:37;;;;;;;;;;;6.60;91.80;;;;;;5087550;28;19931;-77
2024/01/28 14:07:03;;;;;;;;;;;6.60;91.50;;;;;;5084282;28;20026;-77
2024/01/28 14:09:29;;;;;;;;;;;6.70;92.90;;;;;;5101399;27;19934;-76
2024/01/28 14:11:54;;;;;;;;;;;6.70;92.70;;;;;;5068848;28;19931;-78
2024/01/28 14:14:20;;;;;;;;;;;6.80;92.80;;;;;;5065573;28;19977;-77
2024/01/28 14:16:45;;;;;;;;;;;6.60;93.50;;;;;;5084068;28;19927;-78
2024/01/28 14:19:11;;;;;;;;;;;6.90;94.70;;;;;;5103964;27;19928;-83
2024/01/28 14:21:37;;;;;;;;;;;6.80;94.10;;;;;;5087630;28;19927;-78